createdAt,value
2022-10-12T00:00:01.069Z,8.5
2022-10-12T00:10:01.024Z,8.2
2022-10-12T00:20:01.125Z,8.1
2022-10-12T00:30:01.296Z,8.0
2022-10-12T00:40:01.100Z,7.9
2022-10-12T00:50:01.011Z,7.8
2022-10-12T01:00:01.008Z,7.6
2022-10-12T01:10:00.979Z,7.5
2022-10-12T01:20:00.995Z,7.4
2022-10-12T01:30:01.287Z,7.7
2022-10-12T01:40:00.988Z,7.6
2022-10-12T01:50:01.243Z,7.2
2022-10-12T02:00:00.959Z,7.3
2022-10-12T02:10:01.252Z,7.2
2022-10-12T02:20:01.173Z,7.1
2022-10-12T02:30:01.061Z,6.9
2022-10-12T02:40:01.028Z,7.1
2022-10-12T02:50:01.010Z,6.8
2022-10-12T03:00:01.029Z,6.9
2022-10-12T03:10:00.183Z,6.6
2022-10-12T03:20:01.011Z,6.5
2022-10-12T03:30:01.029Z,6.8
2022-10-12T03:40:00.168Z,6.7
2022-10-12T03:50:01.260Z,6.7
2022-10-12T04:00:01.559Z,6.5
2022-10-12T04:10:01.412Z,6.3
2022-10-12T04:20:01.170Z,6.4
2022-10-12T04:30:01.025Z,6.5
2022-10-12T04:40:01.188Z,6.2
2022-10-12T04:50:00.952Z,6.1
2022-10-12T05:00:01.301Z,6.1
2022-10-12T05:10:01.309Z,6.2
2022-10-12T05:20:01.043Z,6.2
2022-10-12T05:30:01.043Z,6.3
2022-10-12T05:40:01.867Z,6.2
2022-10-12T05:50:01.029Z,6.3
2022-10-12T06:00:01.469Z,6.4
2022-10-12T06:10:00.969Z,6.5
2022-10-12T06:20:01.030Z,6.7
2022-10-12T06:30:01.051Z,6.9
2022-10-12T06:40:00.143Z,7.0
2022-10-12T06:50:00.155Z,7.4
2022-10-12T07:00:00.962Z,7.7
2022-10-12T07:10:01.062Z,8.3
2022-10-12T07:20:01.045Z,8.6
2022-10-12T07:40:01.225Z,9.8
2022-10-12T07:50:01.290Z,10.5
2022-10-12T08:00:00.128Z,10.9
2022-10-12T08:10:01.457Z,11.7
2022-10-12T08:20:01.001Z,12.2
2022-10-12T08:30:01.056Z,12.5
2022-10-12T08:40:03.457Z,12.7
2022-10-12T08:50:01.054Z,13.4
2022-10-12T09:00:00.965Z,14.1
2022-10-12T09:10:01.366Z,14.5
2022-10-12T09:20:00.121Z,14.9
2022-10-12T09:30:01.431Z,14.8
2022-10-12T09:40:01.249Z,14.9
2022-10-12T09:50:01.066Z,15.1
2022-10-12T10:00:01.125Z,15.6
2022-10-12T10:10:00.159Z,16.3
2022-10-12T10:20:01.006Z,18.6
2022-10-12T10:30:10.521Z,18.9
2022-10-12T10:40:01.220Z,19.4
2022-10-12T10:50:01.210Z,20.8
2022-10-12T11:00:19.696Z,20.3
2022-10-12T11:10:01.166Z,20.2
2022-10-12T11:20:01.176Z,21.6
2022-10-12T11:30:09.746Z,22.0
2022-10-12T11:40:00.950Z,21.1
2022-10-12T11:50:01.563Z,22.0
2022-10-12T12:00:01.338Z,22.1
2022-10-12T12:10:01.044Z,21.7
2022-10-12T12:20:01.014Z,20.9
2022-10-12T12:30:01.313Z,21.2
2022-10-12T12:40:01.019Z,23.1
2022-10-12T12:50:00.164Z,22.5
2022-10-12T13:00:00.119Z,23.2
2022-10-12T13:10:01.293Z,21.7
2022-10-12T13:20:00.946Z,22.8
2022-10-12T13:30:01.618Z,23.0
2022-10-12T13:40:01.097Z,23.5
2022-10-12T13:50:00.228Z,23.7
2022-10-12T14:00:01.579Z,21.8
2022-10-12T14:10:02.693Z,22.0
2022-10-12T14:30:01.017Z,22.5
2022-10-12T14:40:01.095Z,22.1
2022-10-12T14:50:03.189Z,22.4
2022-10-12T15:00:01.299Z,20.6
2022-10-12T15:10:01.227Z,21.5
2022-10-12T15:20:03.227Z,21.2
2022-10-12T15:30:01.251Z,20.9
2022-10-12T15:40:01.009Z,19.4
2022-10-12T15:50:01.311Z,16.5
2022-10-12T16:00:01.542Z,15.2
2022-10-12T16:10:00.124Z,14.7
2022-10-12T16:20:00.162Z,14.3
2022-10-12T16:30:01.022Z,13.9
2022-10-12T16:40:01.020Z,13.5
2022-10-12T16:50:01.121Z,13.2
2022-10-12T17:00:01.504Z,13.0
2022-10-12T17:10:00.138Z,12.8
2022-10-12T17:20:00.149Z,12.8
2022-10-12T17:30:01.645Z,12.4
2022-10-12T17:40:01.047Z,12.2
2022-10-12T17:50:01.872Z,13.3
2022-10-12T18:10:01.087Z,13.2
2022-10-12T18:20:02.656Z,11.8
2022-10-12T18:30:01.046Z,11.6
2022-10-12T18:40:01.019Z,11.4
2022-10-12T18:50:01.254Z,11.1
2022-10-12T19:00:01.092Z,11.0
2022-10-12T19:10:00.994Z,10.8
2022-10-12T19:20:01.571Z,10.7
2022-10-12T19:30:02.820Z,10.5
2022-10-12T19:40:03.998Z,10.4
2022-10-12T19:50:00.130Z,10.5
2022-10-12T20:00:02.486Z,10.3
2022-10-12T20:10:00.142Z,10.1
2022-10-12T20:20:01.305Z,10.3
2022-10-12T20:30:02.072Z,10.3
2022-10-12T20:40:01.006Z,10.1
2022-10-12T20:50:01.438Z,10.2
2022-10-12T21:00:02.627Z,10.2
2022-10-12T21:10:01.000Z,10.0
2022-10-12T21:20:00.983Z,9.7
2022-10-12T21:30:00.114Z,9.6
2022-10-12T21:40:01.038Z,9.5
2022-10-12T21:50:03.480Z,9.5
2022-10-12T22:00:01.313Z,9.4
2022-10-12T22:10:02.858Z,9.4
2022-10-12T22:20:00.977Z,9.4
2022-10-12T22:30:00.138Z,9.4
2022-10-12T22:40:03.524Z,9.2
2022-10-12T22:50:00.165Z,9.0
2022-10-12T23:00:01.346Z,8.9
2022-10-12T23:10:01.277Z,8.9
2022-10-12T23:20:01.506Z,8.8
2022-10-12T23:30:01.235Z,8.8
2022-10-12T23:40:01.136Z,8.7
2022-10-12T23:50:02.186Z,8.9
